< Typhoon 201406 2014 Season Typhoon 201408 >
Typhoon 201407 (HAGIBIS)
General InformationTrack Information on Google MapsDetailed Wind InformationForecast History on Google MapsAccess Analytics MapList of All Images || NewsDisaster Info.WeblogTrackbackTyphoon FrontTwiphoonTyphoon Now!Typhoon ImaginationDisaster Info. XMLResourceGoogle EarthGE AnimationAtom FeedGeoJSON
Detalied Best Track (Time Zone = UTC)
Year Month Day Hour Lat. Long. Pressure (hPa) Wind (kt) Class Image Chart
2014 6 13 00 18.8 116.0 998 0 2 Image Chart
2014 6 13 06 19.4 116.7 998 0 2 Image Chart
2014 6 13 12 19.6 116.9 998 0 2 Image Chart
2014 6 13 18 20.1 117.1 998 0 2 Image Chart
2014 6 14 00 20.6 117.0 996 35 3 Image Chart
2014 6 14 06 20.9 116.7 996 35 3 Image Chart
2014 6 14 12 21.2 116.9 996 35 3 Image Chart
2014 6 14 18 21.6 116.9 996 35 3 Image Chart
2014 6 15 00 22.0 116.7 996 35 3 Image Chart
2014 6 15 06 22.7 116.4 996 35 3 Image Chart
2014 6 15 12 23.0 116.4 996 35 3 Image Chart
2014 6 15 18 23.7 116.3 998 0 2 Image Chart
2014 6 16 00 24.3 116.5 1000 0 2 Image Chart
2014 6 16 06 25.5 117.6 1000 0 2 Image Chart
2014 6 16 12 25.9 118.7 1000 0 2 Image Chart
2014 6 16 18 26.4 120.5 1000 0 2 Image Chart
2014 6 17 00 27.4 122.6 998 40 3 Image Chart
2014 6 17 06 28.5 125.7 996 40 3 Image Chart
2014 6 17 12 29.2 130.0 1000 0 2 Image Chart
2014 6 17 18 31.0 133.0 996 0 6 Image Chart
2014 6 18 00 31.0 137.2 996 0 6 Image Chart
2014 6 18 06 31.4 140.7 994 0 6 Image Chart
2014 6 18 12 31.9 142.9 994 0 6 Image Chart
2014 6 18 18 32.2 145.2 990 0 6 Image Chart
2014 6 19 00 32.8 148.0 990 0 6 Image Chart
2014 6 19 06 33.0 150.5 988 0 6 Image Chart
2014 6 19 12 32.9 152.3 992 0 6 Image Chart
2014 6 19 18 33.0 154.1 994 0 6 Image Chart
2014 6 20 00 33.4 156.3 996 0 6 Image Chart
2014 6 20 06 34.1 158.7 1000 0 6 Image Chart
2014 6 20 12 35.0 160.4 1002 0 6 Image Chart
2014 6 20 18 35.7 161.8 1004 0 6 Image Chart
2014 6 21 00 36.7 163.2 1004 0 6 Image Chart
2014 6 21 06 37.7 164.8 1004 0 6 Image Chart
2014 6 21 12 38.7 166.4 1006 0 6 Image Chart
2014 6 21 18 39.6 169.3 1008 0 6 Image Chart
2014 6 22 00 40.4 172.2 1006 0 6 Image Chart
2014 6 22 06 41.6 175.2 1004 0 6 Image Chart
2014 6 22 12 42.9 177.0 1004 0 6 Image Chart
2014 6 22 18 43.6 178.9 1004 0 6 Image Chart
2014 6 23 00 43.8 183.2 1004 0 6 Image Chart
Japan Meteorological Agency Best Track Data | Correction Date : 2014-07-16
< Typhoon 201406 2014 Season Typhoon 201408 >

Help